sensor_id;sensor_type;location;lat;lon;timestamp;temperature;humidity
19538;DHT22;9914;51.008;4.300;2023-05-10T00:01:05;15.50;99.90
19538;DHT22;9914;51.008;4.300;2023-05-10T00:03:30;15.50;99.90
19538;DHT22;9914;51.008;4.300;2023-05-10T00:05:56;15.50;99.90
19538;DHT22;9914;51.008;4.300;2023-05-10T00:08:22;15.60;99.90
19538;DHT22;9914;51.008;4.300;2023-05-10T00:10:48;15.60;99.90
19538;DHT22;9914;51.008;4.300;2023-05-10T00:13:13;15.60;99.90
19538;DHT22;9914;51.008;4.300;2023-05-10T00:15:39;15.60;99.90
19538;DHT22;9914;51.008;4.300;2023-05-10T00:18:05;15.60;99.90
19538;DHT22;9914;51.008;4.300;2023-05-10T00:20:30;15.40;99.90
19538;DHT22;9914;51.008;4.300;2023-05-10T00:22:56;15.50;99.90
19538;DHT22;9914;51.008;4.300;2023-05-10T00:25:22;15.50;99.90
19538;DHT22;9914;51.008;4.300;2023-05-10T00:27:47;15.40;99.90
19538;DHT22;9914;51.008;4.300;2023-05-10T00:30:14;15.40;99.90
19538;DHT22;9914;51.008;4.300;2023-05-10T00:32:39;15.50;99.90
19538;DHT22;9914;51.008;4.300;2023-05-10T00:35:05;15.60;99.90
19538;DHT22;9914;51.008;4.300;2023-05-10T00:37:31;15.60;99.90
19538;DHT22;9914;51.008;4.300;2023-05-10T00:39:56;15.50;99.90
19538;DHT22;9914;51.008;4.300;2023-05-10T00:42:22;15.50;99.90
19538;DHT22;9914;51.008;4.300;2023-05-10T00:44:48;15.60;99.90
19538;DHT22;9914;51.008;4.300;2023-05-10T00:47:14;15.50;99.90
19538;DHT22;9914;51.008;4.300;2023-05-10T00:49:40;15.40;99.90
19538;DHT22;9914;51.008;4.300;2023-05-10T00:52:07;15.50;99.90
19538;DHT22;9914;51.008;4.300;2023-05-10T00:54:33;15.50;99.90
19538;DHT22;9914;51.008;4.300;2023-05-10T00:56:59;15.50;99.90
19538;DHT22;9914;51.008;4.300;2023-05-10T00:59:25;15.50;99.90
19538;DHT22;9914;51.008;4.300;2023-05-10T01:01:50;15.40;99.90
19538;DHT22;9914;51.008;4.300;2023-05-10T01:04:18;15.30;99.90
19538;DHT22;9914;51.008;4.300;2023-05-10T01:06:45;15.30;99.90
19538;DHT22;9914;51.008;4.300;2023-05-10T01:09:11;15.20;99.90
19538;DHT22;9914;51.008;4.300;2023-05-10T01:11:38;15.20;99.90
19538;DHT22;9914;51.008;4.300;2023-05-10T01:14:05;15.30;99.90
19538;DHT22;9914;51.008;4.300;2023-05-10T01:16:36;15.20;99.90
19538;DHT22;9914;51.008;4.300;2023-05-10T01:19:10;15.20;99.90
19538;DHT22;9914;51.008;4.300;2023-05-10T01:28:20;15.20;99.90
19538;DHT22;9914;51.008;4.300;2023-05-10T01:33:52;15.20;99.90
19538;DHT22;9914;51.008;4.300;2023-05-10T01:36:30;15.10;99.90
19538;DHT22;9914;51.008;4.300;2023-05-10T01:47:40;15.10;99.90
19538;DHT22;9914;51.008;4.300;2023-05-10T01:49:50;15.10;99.90
19538;DHT22;9914;51.008;4.300;2023-05-10T01:52:19;15.00;99.90
19538;DHT22;9914;51.008;4.300;2023-05-10T01:54:56;15.20;99.90
19538;DHT22;9914;51.008;4.300;2023-05-10T01:57:29;15.10;99.90
19538;DHT22;9914;51.008;4.300;2023-05-10T01:59:58;15.10;99.90
19538;DHT22;9914;51.008;4.300;2023-05-10T02:02:25;15.20;99.90
19538;DHT22;9914;51.008;4.300;2023-05-10T02:04:53;15.20;99.90
19538;DHT22;9914;51.008;4.300;2023-05-10T02:07:20;15.20;99.90
19538;DHT22;9914;51.008;4.300;2023-05-10T02:09:47;15.20;99.90
19538;DHT22;9914;51.008;4.300;2023-05-10T02:12:13;15.20;99.90
19538;DHT22;9914;51.008;4.300;2023-05-10T02:14:41;15.20;99.90
19538;DHT22;9914;51.008;4.300;2023-05-10T02:17:09;15.20;99.90
19538;DHT22;9914;51.008;4.300;2023-05-10T02:19:37;15.30;99.90
19538;DHT22;9914;51.008;4.300;2023-05-10T02:22:04;15.30;99.90
19538;DHT22;9914;51.008;4.300;2023-05-10T02:24:31;15.30;99.90
19538;DHT22;9914;51.008;4.300;2023-05-10T02:26:57;15.40;99.90
19538;DHT22;9914;51.008;4.300;2023-05-10T02:29:25;15.40;99.90
19538;DHT22;9914;51.008;4.300;2023-05-10T02:31:54;15.40;99.90
19538;DHT22;9914;51.008;4.300;2023-05-10T02:34:26;15.40;99.90
19538;DHT22;9914;51.008;4.300;2023-05-10T02:36:53;15.30;99.90
19538;DHT22;9914;51.008;4.300;2023-05-10T02:39:21;15.20;99.90
19538;DHT22;9914;51.008;4.300;2023-05-10T02:41:48;15.10;99.90
19538;DHT22;9914;51.008;4.300;2023-05-10T02:44:20;15.00;99.90
19538;DHT22;9914;51.008;4.300;2023-05-10T02:46:47;14.90;99.90
19538;DHT22;9914;51.008;4.300;2023-05-10T02:49:14;14.90;99.90
19538;DHT22;9914;51.008;4.300;2023-05-10T02:51:54;14.90;99.90
19538;DHT22;9914;51.008;4.300;2023-05-10T02:54:24;14.80;99.90
19538;DHT22;9914;51.008;4.300;2023-05-10T02:57:00;14.70;99.90
19538;DHT22;9914;51.008;4.300;2023-05-10T02:59:29;14.70;99.90
19538;DHT22;9914;51.008;4.300;2023-05-10T03:01:55;14.60;99.90
19538;DHT22;9914;51.008;4.300;2023-05-10T03:04:20;14.60;99.90
19538;DHT22;9914;51.008;4.300;2023-05-10T03:06:46;14.60;99.90
19538;DHT22;9914;51.008;4.300;2023-05-10T03:09:12;14.60;99.90
19538;DHT22;9914;51.008;4.300;2023-05-10T03:14:49;14.70;99.90
19538;DHT22;9914;51.008;4.300;2023-05-10T03:19:53;14.60;99.90
19538;DHT22;9914;51.008;4.300;2023-05-10T03:22:36;14.60;99.90
19538;DHT22;9914;51.008;4.300;2023-05-10T03:25:05;14.40;99.90
19538;DHT22;9914;51.008;4.300;2023-05-10T03:27:32;14.40;99.90
19538;DHT22;9914;51.008;4.300;2023-05-10T03:29:58;14.30;99.90
19538;DHT22;9914;51.008;4.300;2023-05-10T03:32:25;14.30;99.90
19538;DHT22;9914;51.008;4.300;2023-05-10T03:34:52;14.40;99.90
19538;DHT22;9914;51.008;4.300;2023-05-10T03:37:18;14.50;99.90
19538;DHT22;9914;51.008;4.300;2023-05-10T03:39:43;14.60;99.90
19538;DHT22;9914;51.008;4.300;2023-05-10T03:42:09;14.60;99.90
19538;DHT22;9914;51.008;4.300;2023-05-10T03:44:38;14.50;99.90
19538;DHT22;9914;51.008;4.300;2023-05-10T03:47:04;14.50;99.90
19538;DHT22;9914;51.008;4.300;2023-05-10T03:49:29;14.50;99.90
19538;DHT22;9914;51.008;4.300;2023-05-10T03:51:55;14.60;99.90
19538;DHT22;9914;51.008;4.300;2023-05-10T03:54:21;14.50;99.90
19538;DHT22;9914;51.008;4.300;2023-05-10T03:56:47;14.50;99.90
19538;DHT22;9914;51.008;4.300;2023-05-10T03:59:13;14.50;99.90
19538;DHT22;9914;51.008;4.300;2023-05-10T04:01:39;14.60;99.90
19538;DHT22;9914;51.008;4.300;2023-05-10T04:04:04;14.60;99.90
19538;DHT22;9914;51.008;4.300;2023-05-10T04:06:30;14.50;99.90
19538;DHT22;9914;51.008;4.300;2023-05-10T04:08:56;14.40;99.90
19538;DHT22;9914;51.008;4.300;2023-05-10T04:11:25;14.40;99.90
19538;DHT22;9914;51.008;4.300;2023-05-10T04:13:50;14.40;99.90
19538;DHT22;9914;51.008;4.300;2023-05-10T04:16:16;14.40;99.90
19538;DHT22;9914;51.008;4.300;2023-05-10T04:18:42;14.40;99.90
19538;DHT22;9914;51.008;4.300;2023-05-10T04:21:14;14.20;99.90
19538;DHT22;9914;51.008;4.300;2023-05-10T04:23:40;14.20;99.90
19538;DHT22;9914;51.008;4.300;2023-05-10T04:26:06;14.40;99.90
19538;DHT22;9914;51.008;4.300;2023-05-10T04:28:31;14.50;99.90
19538;DHT22;9914;51.008;4.300;2023-05-10T04:31:04;14.50;99.90
19538;DHT22;9914;51.008;4.300;2023-05-10T04:33:30;14.50;99.90
19538;DHT22;9914;51.008;4.300;2023-05-10T04:35:56;14.40;99.90
19538;DHT22;9914;51.008;4.300;2023-05-10T04:38:22;14.50;99.90
19538;DHT22;9914;51.008;4.300;2023-05-10T04:40:47;14.60;99.90
19538;DHT22;9914;51.008;4.300;2023-05-10T04:43:13;14.70;99.90
19538;DHT22;9914;51.008;4.300;2023-05-10T04:45:39;14.70;99.90
19538;DHT22;9914;51.008;4.300;2023-05-10T04:48:05;14.70;99.90
19538;DHT22;9914;51.008;4.300;2023-05-10T04:50:30;14.70;99.90
19538;DHT22;9914;51.008;4.300;2023-05-10T04:52:57;14.80;99.90
19538;DHT22;9914;51.008;4.300;2023-05-10T04:55:22;14.90;99.90
19538;DHT22;9914;51.008;4.300;2023-05-10T04:57:48;15.00;99.90
19538;DHT22;9914;51.008;4.300;2023-05-10T05:00:14;15.00;99.90
19538;DHT22;9914;51.008;4.300;2023-05-10T05:02:44;15.00;99.90
19538;DHT22;9914;51.008;4.300;2023-05-10T05:05:11;15.00;99.90
19538;DHT22;9914;51.008;4.300;2023-05-10T05:07:36;15.10;99.90
19538;DHT22;9914;51.008;4.300;2023-05-10T05:10:06;15.20;99.90
19538;DHT22;9914;51.008;4.300;2023-05-10T05:12:32;15.20;99.90
19538;DHT22;9914;51.008;4.300;2023-05-10T05:14:58;15.30;99.90
19538;DHT22;9914;51.008;4.300;2023-05-10T05:17:24;15.20;99.90
19538;DHT22;9914;51.008;4.300;2023-05-10T05:19:49;15.40;99.90
19538;DHT22;9914;51.008;4.300;2023-05-10T05:22:15;15.50;99.90
19538;DHT22;9914;51.008;4.300;2023-05-10T05:24:41;15.50;99.90
19538;DHT22;9914;51.008;4.300;2023-05-10T05:27:07;15.60;99.90
19538;DHT22;9914;51.008;4.300;2023-05-10T05:29:33;15.70;99.90
19538;DHT22;9914;51.008;4.300;2023-05-10T05:31:58;15.80;99.90
19538;DHT22;9914;51.008;4.300;2023-05-10T05:34:24;15.90;99.90
19538;DHT22;9914;51.008;4.300;2023-05-10T05:36:50;15.90;99.90
19538;DHT22;9914;51.008;4.300;2023-05-10T05:39:16;15.90;99.90
19538;DHT22;9914;51.008;4.300;2023-05-10T05:41:42;15.90;99.90
19538;DHT22;9914;51.008;4.300;2023-05-10T05:44:08;15.90;99.90
19538;DHT22;9914;51.008;4.300;2023-05-10T05:46:33;16.00;99.90
19538;DHT22;9914;51.008;4.300;2023-05-10T05:48:59;16.10;99.90
19538;DHT22;9914;51.008;4.300;2023-05-10T05:51:25;16.20;99.90
19538;DHT22;9914;51.008;4.300;2023-05-10T05:53:50;16.30;99.90
19538;DHT22;9914;51.008;4.300;2023-05-10T05:56:16;16.30;99.90
19538;DHT22;9914;51.008;4.300;2023-05-10T05:58:43;16.30;99.90
19538;DHT22;9914;51.008;4.300;2023-05-10T06:01:10;16.50;99.90
19538;DHT22;9914;51.008;4.300;2023-05-10T06:03:35;16.50;99.90
19538;DHT22;9914;51.008;4.300;2023-05-10T06:06:01;16.50;99.90
19538;DHT22;9914;51.008;4.300;2023-05-10T06:08:27;16.60;99.90
19538;DHT22;9914;51.008;4.300;2023-05-10T06:10:52;16.50;99.90
19538;DHT22;9914;51.008;4.300;2023-05-10T06:13:18;16.30;99.90
19538;DHT22;9914;51.008;4.300;2023-05-10T06:15:43;16.50;99.90
19538;DHT22;9914;51.008;4.300;2023-05-10T06:18:09;16.60;99.90
19538;DHT22;9914;51.008;4.300;2023-05-10T06:20:35;16.80;99.90
19538;DHT22;9914;51.008;4.300;2023-05-10T06:23:00;17.00;99.90
19538;DHT22;9914;51.008;4.300;2023-05-10T06:25:26;17.10;99.90
19538;DHT22;9914;51.008;4.300;2023-05-10T06:27:52;17.20;99.90
19538;DHT22;9914;51.008;4.300;2023-05-10T06:30:23;17.30;99.90
19538;DHT22;9914;51.008;4.300;2023-05-10T06:32:52;17.30;99.90
19538;DHT22;9914;51.008;4.300;2023-05-10T06:35:19;17.30;99.90
19538;DHT22;9914;51.008;4.300;2023-05-10T06:37:44;17.20;99.90
19538;DHT22;9914;51.008;4.300;2023-05-10T06:40:10;17.10;99.90
19538;DHT22;9914;51.008;4.300;2023-05-10T06:42:36;16.90;99.90
19538;DHT22;9914;51.008;4.300;2023-05-10T06:45:02;16.70;99.90
19538;DHT22;9914;51.008;4.300;2023-05-10T06:47:27;16.60;99.90
19538;DHT22;9914;51.008;4.300;2023-05-10T06:49:53;16.60;99.90
19538;DHT22;9914;51.008;4.300;2023-05-10T06:52:18;16.60;99.90
19538;DHT22;9914;51.008;4.300;2023-05-10T06:54:44;16.60;99.90
19538;DHT22;9914;51.008;4.300;2023-05-10T06:57:10;16.50;99.90
19538;DHT22;9914;51.008;4.300;2023-05-10T06:59:36;16.50;99.90
19538;DHT22;9914;51.008;4.300;2023-05-10T07:02:01;16.50;99.90
19538;DHT22;9914;51.008;4.300;2023-05-10T07:04:27;16.60;99.90
19538;DHT22;9914;51.008;4.300;2023-05-10T07:06:53;16.70;99.90
19538;DHT22;9914;51.008;4.300;2023-05-10T07:09:19;16.60;99.90
19538;DHT22;9914;51.008;4.300;2023-05-10T07:11:44;16.60;99.90
19538;DHT22;9914;51.008;4.300;2023-05-10T07:14:10;16.60;99.90
19538;DHT22;9914;51.008;4.300;2023-05-10T07:16:36;16.70;99.90
19538;DHT22;9914;51.008;4.300;2023-05-10T07:19:01;16.90;99.90
19538;DHT22;9914;51.008;4.300;2023-05-10T07:21:27;17.00;99.90
19538;DHT22;9914;51.008;4.300;2023-05-10T07:23:54;17.00;99.90
19538;DHT22;9914;51.008;4.300;2023-05-10T07:26:20;17.20;99.90
19538;DHT22;9914;51.008;4.300;2023-05-10T07:28:46;17.20;99.90
19538;DHT22;9914;51.008;4.300;2023-05-10T07:31:12;17.40;99.90
19538;DHT22;9914;51.008;4.300;2023-05-10T07:33:37;17.20;99.90
19538;DHT22;9914;51.008;4.300;2023-05-10T07:36:03;17.10;99.90
19538;DHT22;9914;51.008;4.300;2023-05-10T07:38:29;17.20;99.90
19538;DHT22;9914;51.008;4.300;2023-05-10T07:40:54;17.30;99.90
19538;DHT22;9914;51.008;4.300;2023-05-10T07:43:20;17.30;99.90
19538;DHT22;9914;51.008;4.300;2023-05-10T07:45:46;17.20;99.90
19538;DHT22;9914;51.008;4.300;2023-05-10T07:48:11;17.20;99.90
19538;DHT22;9914;51.008;4.300;2023-05-10T07:50:37;17.20;99.90
19538;DHT22;9914;51.008;4.300;2023-05-10T07:53:02;17.30;99.90
19538;DHT22;9914;51.008;4.300;2023-05-10T07:55:28;17.30;99.90
19538;DHT22;9914;51.008;4.300;2023-05-10T07:57:54;17.60;99.90
19538;DHT22;9914;51.008;4.300;2023-05-10T08:00:20;17.70;99.90
19538;DHT22;9914;51.008;4.300;2023-05-10T08:02:47;17.60;99.90
19538;DHT22;9914;51.008;4.300;2023-05-10T08:05:13;17.50;99.90
19538;DHT22;9914;51.008;4.300;2023-05-10T08:07:38;17.50;99.90
19538;DHT22;9914;51.008;4.300;2023-05-10T08:10:05;17.50;99.90
19538;DHT22;9914;51.008;4.300;2023-05-10T08:12:31;17.70;99.90
19538;DHT22;9914;51.008;4.300;2023-05-10T08:14:56;17.70;99.90
19538;DHT22;9914;51.008;4.300;2023-05-10T08:17:22;17.80;99.90
19538;DHT22;9914;51.008;4.300;2023-05-10T08:19:48;17.80;99.90
19538;DHT22;9914;51.008;4.300;2023-05-10T08:22:13;17.60;99.90
19538;DHT22;9914;51.008;4.300;2023-05-10T08:24:39;17.50;99.90
19538;DHT22;9914;51.008;4.300;2023-05-10T08:27:07;17.40;99.90
19538;DHT22;9914;51.008;4.300;2023-05-10T08:29:33;17.10;99.90
19538;DHT22;9914;51.008;4.300;2023-05-10T08:31:59;17.00;99.90
19538;DHT22;9914;51.008;4.300;2023-05-10T08:34:26;16.90;99.90
19538;DHT22;9914;51.008;4.300;2023-05-10T08:36:52;16.80;99.90
19538;DHT22;9914;51.008;4.300;2023-05-10T08:39:18;16.70;99.90
19538;DHT22;9914;51.008;4.300;2023-05-10T08:41:45;16.60;99.90
19538;DHT22;9914;51.008;4.300;2023-05-10T08:44:12;16.50;99.90
19538;DHT22;9914;51.008;4.300;2023-05-10T08:46:41;16.50;99.90
19538;DHT22;9914;51.008;4.300;2023-05-10T08:49:12;16.60;99.90
19538;DHT22;9914;51.008;4.300;2023-05-10T08:51:40;16.70;99.90
19538;DHT22;9914;51.008;4.300;2023-05-10T08:54:09;16.70;99.90
19538;DHT22;9914;51.008;4.300;2023-05-10T08:56:35;16.50;99.90
19538;DHT22;9914;51.008;4.300;2023-05-10T08:59:01;16.40;99.90
19538;DHT22;9914;51.008;4.300;2023-05-10T09:01:28;16.30;99.90
19538;DHT22;9914;51.008;4.300;2023-05-10T09:03:56;16.30;99.90
19538;DHT22;9914;51.008;4.300;2023-05-10T09:06:22;16.30;99.90
19538;DHT22;9914;51.008;4.300;2023-05-10T09:08:47;16.10;99.90
19538;DHT22;9914;51.008;4.300;2023-05-10T09:11:14;15.90;99.90
19538;DHT22;9914;51.008;4.300;2023-05-10T09:13:39;15.90;99.90
19538;DHT22;9914;51.008;4.300;2023-05-10T09:16:05;16.00;99.90
19538;DHT22;9914;51.008;4.300;2023-05-10T09:18:31;16.10;99.90
19538;DHT22;9914;51.008;4.300;2023-05-10T09:20:56;16.10;99.90
19538;DHT22;9914;51.008;4.300;2023-05-10T09:23:22;16.10;99.90
19538;DHT22;9914;51.008;4.300;2023-05-10T09:26:02;16.20;99.90
19538;DHT22;9914;51.008;4.300;2023-05-10T09:28:32;16.10;99.90
19538;DHT22;9914;51.008;4.300;2023-05-10T09:30:57;16.10;99.90
19538;DHT22;9914;51.008;4.300;2023-05-10T09:33:24;16.10;99.90
19538;DHT22;9914;51.008;4.300;2023-05-10T09:35:51;16.00;99.90
19538;DHT22;9914;51.008;4.300;2023-05-10T09:38:17;15.90;99.90
19538;DHT22;9914;51.008;4.300;2023-05-10T09:40:53;15.80;99.90
19538;DHT22;9914;51.008;4.300;2023-05-10T09:43:20;15.80;99.90
19538;DHT22;9914;51.008;4.300;2023-05-10T09:45:48;15.90;99.90
19538;DHT22;9914;51.008;4.300;2023-05-10T09:48:15;16.00;99.90
19538;DHT22;9914;51.008;4.300;2023-05-10T09:50:41;16.00;99.90
19538;DHT22;9914;51.008;4.300;2023-05-10T09:53:07;16.10;99.90
19538;DHT22;9914;51.008;4.300;2023-05-10T09:55:39;16.20;99.90
19538;DHT22;9914;51.008;4.300;2023-05-10T09:58:06;16.30;99.90
19538;DHT22;9914;51.008;4.300;2023-05-10T10:00:39;16.50;99.90
19538;DHT22;9914;51.008;4.300;2023-05-10T10:03:06;16.70;99.90
19538;DHT22;9914;51.008;4.300;2023-05-10T10:05:33;16.90;99.90
19538;DHT22;9914;51.008;4.300;2023-05-10T10:08:00;17.00;99.90
19538;DHT22;9914;51.008;4.300;2023-05-10T10:10:27;17.20;99.90
19538;DHT22;9914;51.008;4.300;2023-05-10T10:12:53;17.00;99.90
19538;DHT22;9914;51.008;4.300;2023-05-10T10:15:20;17.20;99.90
19538;DHT22;9914;51.008;4.300;2023-05-10T10:17:46;17.30;99.90
19538;DHT22;9914;51.008;4.300;2023-05-10T10:20:13;17.50;99.90
19538;DHT22;9914;51.008;4.300;2023-05-10T10:22:39;17.40;99.90
19538;DHT22;9914;51.008;4.300;2023-05-10T10:25:05;17.40;99.90
19538;DHT22;9914;51.008;4.300;2023-05-10T10:30:46;17.50;99.90
19538;DHT22;9914;51.008;4.300;2023-05-10T10:36:00;17.30;99.90
19538;DHT22;9914;51.008;4.300;2023-05-10T10:38:54;17.50;99.90
19538;DHT22;9914;51.008;4.300;2023-05-10T10:49:52;17.70;99.90
19538;DHT22;9914;51.008;4.300;2023-05-10T10:52:40;17.80;99.90
19538;DHT22;9914;51.008;4.300;2023-05-10T10:55:07;17.70;99.90
19538;DHT22;9914;51.008;4.300;2023-05-10T11:00:27;18.00;99.90
19538;DHT22;9914;51.008;4.300;2023-05-10T11:08:16;18.50;99.90
19538;DHT22;9914;51.008;4.300;2023-05-10T11:13:30;18.60;99.90
19538;DHT22;9914;51.008;4.300;2023-05-10T11:15:56;18.50;99.90
19538;DHT22;9914;51.008;4.300;2023-05-10T11:18:26;18.30;99.90
19538;DHT22;9914;51.008;4.300;2023-05-10T11:20:55;18.30;99.90
19538;DHT22;9914;51.008;4.300;2023-05-10T11:23:22;18.30;99.90
19538;DHT22;9914;51.008;4.300;2023-05-10T11:25:49;18.30;99.90
19538;DHT22;9914;51.008;4.300;2023-05-10T11:28:17;18.30;99.90
19538;DHT22;9914;51.008;4.300;2023-05-10T11:30:44;18.20;99.90
19538;DHT22;9914;51.008;4.300;2023-05-10T11:33:16;18.20;99.90
19538;DHT22;9914;51.008;4.300;2023-05-10T11:35:42;18.10;99.90
19538;DHT22;9914;51.008;4.300;2023-05-10T11:38:08;18.10;99.90
19538;DHT22;9914;51.008;4.300;2023-05-10T11:40:35;18.20;99.90
19538;DHT22;9914;51.008;4.300;2023-05-10T11:43:02;18.30;99.90
19538;DHT22;9914;51.008;4.300;2023-05-10T11:45:29;18.40;99.90
19538;DHT22;9914;51.008;4.300;2023-05-10T11:47:58;18.40;99.90
19538;DHT22;9914;51.008;4.300;2023-05-10T11:50:24;18.50;99.90
19538;DHT22;9914;51.008;4.300;2023-05-10T11:52:57;18.50;99.90
19538;DHT22;9914;51.008;4.300;2023-05-10T11:55:24;18.70;99.90
19538;DHT22;9914;51.008;4.300;2023-05-10T11:57:53;18.80;99.90
19538;DHT22;9914;51.008;4.300;2023-05-10T12:00:20;18.80;99.90
19538;DHT22;9914;51.008;4.300;2023-05-10T12:02:46;18.60;99.90
19538;DHT22;9914;51.008;4.300;2023-05-10T12:05:11;18.40;99.90
19538;DHT22;9914;51.008;4.300;2023-05-10T12:07:38;18.30;99.90
19538;DHT22;9914;51.008;4.300;2023-05-10T12:10:11;18.30;99.90
19538;DHT22;9914;51.008;4.300;2023-05-10T12:12:45;18.50;99.90
19538;DHT22;9914;51.008;4.300;2023-05-10T12:17:45;18.50;99.90
19538;DHT22;9914;51.008;4.300;2023-05-10T12:20:19;18.50;99.90
19538;DHT22;9914;51.008;4.300;2023-05-10T12:22:54;18.20;99.90
19538;DHT22;9914;51.008;4.300;2023-05-10T12:25:22;18.30;99.90
19538;DHT22;9914;51.008;4.300;2023-05-10T12:27:55;18.60;99.90
19538;DHT22;9914;51.008;4.300;2023-05-10T12:30:23;18.60;99.90
19538;DHT22;9914;51.008;4.300;2023-05-10T12:32:49;18.40;99.90
19538;DHT22;9914;51.008;4.300;2023-05-10T12:35:16;18.30;99.90
19538;DHT22;9914;51.008;4.300;2023-05-10T12:37:44;18.50;99.90
19538;DHT22;9914;51.008;4.300;2023-05-10T12:40:11;18.60;99.90
19538;DHT22;9914;51.008;4.300;2023-05-10T12:42:38;18.50;99.90
19538;DHT22;9914;51.008;4.300;2023-05-10T12:45:05;18.50;99.90
19538;DHT22;9914;51.008;4.300;2023-05-10T12:47:31;18.20;99.90
19538;DHT22;9914;51.008;4.300;2023-05-10T12:49:57;18.20;99.90
19538;DHT22;9914;51.008;4.300;2023-05-10T12:52:24;18.10;99.90
19538;DHT22;9914;51.008;4.300;2023-05-10T12:54:50;18.20;99.90
19538;DHT22;9914;51.008;4.300;2023-05-10T12:57:16;18.50;99.90
19538;DHT22;9914;51.008;4.300;2023-05-10T12:59:41;18.40;99.90
19538;DHT22;9914;51.008;4.300;2023-05-10T13:02:08;18.20;99.90
19538;DHT22;9914;51.008;4.300;2023-05-10T13:04:33;18.30;99.90
19538;DHT22;9914;51.008;4.300;2023-05-10T13:06:59;18.40;99.90
19538;DHT22;9914;51.008;4.300;2023-05-10T13:09:26;18.60;99.90
19538;DHT22;9914;51.008;4.300;2023-05-10T13:11:52;18.80;99.90
19538;DHT22;9914;51.008;4.300;2023-05-10T13:14:19;18.80;99.90
19538;DHT22;9914;51.008;4.300;2023-05-10T13:16:46;18.80;99.90
19538;DHT22;9914;51.008;4.300;2023-05-10T13:19:13;18.90;99.90
19538;DHT22;9914;51.008;4.300;2023-05-10T13:21:39;18.70;99.90
19538;DHT22;9914;51.008;4.300;2023-05-10T13:24:06;18.50;99.90
19538;DHT22;9914;51.008;4.300;2023-05-10T13:26:32;18.70;99.90
19538;DHT22;9914;51.008;4.300;2023-05-10T13:28:58;18.40;99.90
19538;DHT22;9914;51.008;4.300;2023-05-10T13:31:24;18.20;99.90
19538;DHT22;9914;51.008;4.300;2023-05-10T13:33:49;18.20;99.90
19538;DHT22;9914;51.008;4.300;2023-05-10T13:36:15;18.20;99.90
19538;DHT22;9914;51.008;4.300;2023-05-10T13:38:41;18.30;99.90
19538;DHT22;9914;51.008;4.300;2023-05-10T13:41:07;18.10;99.90
19538;DHT22;9914;51.008;4.300;2023-05-10T13:43:32;18.30;99.90
19538;DHT22;9914;51.008;4.300;2023-05-10T13:45:58;18.40;99.90
19538;DHT22;9914;51.008;4.300;2023-05-10T13:48:23;18.50;99.90
19538;DHT22;9914;51.008;4.300;2023-05-10T13:50:49;18.40;99.90
19538;DHT22;9914;51.008;4.300;2023-05-10T13:53:15;18.50;99.90
19538;DHT22;9914;51.008;4.300;2023-05-10T13:55:41;18.30;99.90
19538;DHT22;9914;51.008;4.300;2023-05-10T13:58:07;18.20;99.90
19538;DHT22;9914;51.008;4.300;2023-05-10T14:00:32;18.30;99.90
19538;DHT22;9914;51.008;4.300;2023-05-10T14:02:58;18.40;99.90
19538;DHT22;9914;51.008;4.300;2023-05-10T14:05:23;18.60;99.90
19538;DHT22;9914;51.008;4.300;2023-05-10T14:07:50;18.70;99.90
19538;DHT22;9914;51.008;4.300;2023-05-10T14:10:16;18.80;99.90
19538;DHT22;9914;51.008;4.300;2023-05-10T14:12:41;18.90;99.90
19538;DHT22;9914;51.008;4.300;2023-05-10T14:15:07;19.00;99.90
19538;DHT22;9914;51.008;4.300;2023-05-10T14:17:35;19.00;99.90
19538;DHT22;9914;51.008;4.300;2023-05-10T14:20:01;19.10;99.90
19538;DHT22;9914;51.008;4.300;2023-05-10T14:22:27;19.20;99.90
19538;DHT22;9914;51.008;4.300;2023-05-10T14:24:53;19.30;99.90
19538;DHT22;9914;51.008;4.300;2023-05-10T14:27:19;19.20;99.90
19538;DHT22;9914;51.008;4.300;2023-05-10T14:29:44;18.80;99.90
19538;DHT22;9914;51.008;4.300;2023-05-10T14:32:10;18.80;99.90
19538;DHT22;9914;51.008;4.300;2023-05-10T14:34:36;18.70;99.90
19538;DHT22;9914;51.008;4.300;2023-05-10T14:37:01;18.60;99.90
19538;DHT22;9914;51.008;4.300;2023-05-10T14:39:27;18.60;99.90
19538;DHT22;9914;51.008;4.300;2023-05-10T14:41:55;18.50;99.90
19538;DHT22;9914;51.008;4.300;2023-05-10T14:44:21;18.50;99.90
19538;DHT22;9914;51.008;4.300;2023-05-10T14:46:47;18.50;99.90
19538;DHT22;9914;51.008;4.300;2023-05-10T14:49:13;18.60;99.90
19538;DHT22;9914;51.008;4.300;2023-05-10T14:51:39;18.50;99.90
19538;DHT22;9914;51.008;4.300;2023-05-10T14:54:05;18.40;99.90
19538;DHT22;9914;51.008;4.300;2023-05-10T14:56:31;18.20;99.90
19538;DHT22;9914;51.008;4.300;2023-05-10T14:58:56;18.10;99.90
19538;DHT22;9914;51.008;4.300;2023-05-10T15:01:22;18.00;99.90
19538;DHT22;9914;51.008;4.300;2023-05-10T15:03:48;17.90;99.90
19538;DHT22;9914;51.008;4.300;2023-05-10T15:06:14;17.70;99.90
19538;DHT22;9914;51.008;4.300;2023-05-10T15:08:41;17.60;99.90
19538;DHT22;9914;51.008;4.300;2023-05-10T15:11:07;17.50;99.90
19538;DHT22;9914;51.008;4.300;2023-05-10T15:13:33;17.50;99.90
19538;DHT22;9914;51.008;4.300;2023-05-10T15:15:58;17.60;99.90
19538;DHT22;9914;51.008;4.300;2023-05-10T15:18:24;17.60;99.90
19538;DHT22;9914;51.008;4.300;2023-05-10T15:20:50;17.70;99.90
19538;DHT22;9914;51.008;4.300;2023-05-10T15:23:15;17.70;99.90
19538;DHT22;9914;51.008;4.300;2023-05-10T15:25:41;17.70;99.90
19538;DHT22;9914;51.008;4.300;2023-05-10T15:28:07;17.70;99.90
19538;DHT22;9914;51.008;4.300;2023-05-10T15:30:32;17.70;99.90
19538;DHT22;9914;51.008;4.300;2023-05-10T15:32:58;17.50;99.90
19538;DHT22;9914;51.008;4.300;2023-05-10T15:35:25;17.40;99.90
19538;DHT22;9914;51.008;4.300;2023-05-10T15:37:51;17.40;99.90
19538;DHT22;9914;51.008;4.300;2023-05-10T15:40:17;17.30;99.90
19538;DHT22;9914;51.008;4.300;2023-05-10T15:42:42;17.20;99.90
19538;DHT22;9914;51.008;4.300;2023-05-10T15:45:09;17.10;99.90
19538;DHT22;9914;51.008;4.300;2023-05-10T15:47:35;17.00;99.90
19538;DHT22;9914;51.008;4.300;2023-05-10T15:50:00;17.00;99.90
19538;DHT22;9914;51.008;4.300;2023-05-10T15:52:26;17.00;99.90
19538;DHT22;9914;51.008;4.300;2023-05-10T15:54:52;17.10;99.90
19538;DHT22;9914;51.008;4.300;2023-05-10T15:57:18;17.00;99.90
19538;DHT22;9914;51.008;4.300;2023-05-10T15:59:43;17.00;99.90
19538;DHT22;9914;51.008;4.300;2023-05-10T16:02:10;17.00;99.90
19538;DHT22;9914;51.008;4.300;2023-05-10T16:04:36;17.10;99.90
19538;DHT22;9914;51.008;4.300;2023-05-10T16:07:02;17.10;99.90
19538;DHT22;9914;51.008;4.300;2023-05-10T16:09:28;17.00;99.90
19538;DHT22;9914;51.008;4.300;2023-05-10T16:11:53;17.00;99.90
19538;DHT22;9914;51.008;4.300;2023-05-10T16:14:19;16.30;99.90
19538;DHT22;9914;51.008;4.300;2023-05-10T16:16:49;16.40;99.90
19538;DHT22;9914;51.008;4.300;2023-05-10T16:19:14;16.30;99.90
19538;DHT22;9914;51.008;4.300;2023-05-10T16:21:40;16.20;99.90
19538;DHT22;9914;51.008;4.300;2023-05-10T16:24:06;15.80;99.90
19538;DHT22;9914;51.008;4.300;2023-05-10T16:26:32;15.40;99.90
19538;DHT22;9914;51.008;4.300;2023-05-10T16:29:01;15.40;99.90
19538;DHT22;9914;51.008;4.300;2023-05-10T16:31:26;15.80;99.90
19538;DHT22;9914;51.008;4.300;2023-05-10T16:33:52;16.10;99.90